createdAt,value
2022-11-25T04:54:59.350Z,32.53
2022-11-25T04:57:04.271Z,33.33
2022-11-25T04:59:27.708Z,34.80
2022-11-25T05:01:31.864Z,33.08
2022-11-25T05:03:35.981Z,34.58
2022-11-25T05:05:41.580Z,38.55
2022-11-25T05:07:46.716Z,42.75
2022-11-25T05:09:51.008Z,42.13
2022-11-25T05:11:55.329Z,45.35
2022-11-25T05:13:59.698Z,39.33
2022-11-25T05:16:03.910Z,48.08
2022-11-25T05:18:07.640Z,44.38
2022-11-25T05:20:13.519Z,46.65
2022-11-25T05:22:21.057Z,51.58
2022-11-25T05:24:26.525Z,55.28
2022-11-25T05:26:30.450Z,53.22
2022-11-25T05:28:34.288Z,58.45
2022-11-25T05:30:38.688Z,59.58
2022-11-25T05:32:42.568Z,65.40
2022-11-25T05:34:46.951Z,64.32
2022-11-25T05:36:51.178Z,73.20
2022-11-25T05:38:54.562Z,72.22
2022-11-25T05:41:07.687Z,71.25
2022-11-25T05:43:11.990Z,72.68
2022-11-25T05:45:16.220Z,72.25
2022-11-25T05:47:20.387Z,77.47
2022-11-25T05:49:24.401Z,72.82
2022-11-25T05:51:30.568Z,87.18
2022-11-25T05:53:35.220Z,74.82
2022-11-25T05:55:38.832Z,74.50
2022-11-25T05:57:42.508Z,82.28
2022-11-25T05:59:46.410Z,82.72
2022-11-25T06:01:50.630Z,85.32
2022-11-25T06:03:56.359Z,83.72
2022-11-25T06:06:00.929Z,93.78
2022-11-25T06:08:05.487Z,83.38
2022-11-25T06:10:11.190Z,83.10
2022-11-25T06:12:15.410Z,91.30
2022-11-25T06:14:22.468Z,88.82
2022-11-25T06:16:31.024Z,81.25
2022-11-25T06:18:35.820Z,94.75
2022-11-25T06:20:40.638Z,92.47
2022-11-25T06:22:44.900Z,106.05
2022-11-25T06:24:56.463Z,114.60
2022-11-25T06:27:03.380Z,145.82
2022-11-25T06:29:07.440Z,120.80
2022-11-25T06:31:15.810Z,100.00
2022-11-25T06:33:20.229Z,110.60
2022-11-25T06:35:24.320Z,104.25
2022-11-25T06:37:31.469Z,98.85
2022-11-25T06:39:37.480Z,99.07
2022-11-25T06:41:44.039Z,92.80
2022-11-25T06:43:49.159Z,90.45
2022-11-25T06:45:52.878Z,77.93
2022-11-25T06:47:56.600Z,88.30
2022-11-25T06:50:00.508Z,82.15
2022-11-25T06:52:04.689Z,80.40
2022-11-25T06:54:12.540Z,83.45
2022-11-25T06:56:23.172Z,79.70
2022-11-25T06:58:35.904Z,84.80
2022-11-25T07:00:40.001Z,83.43
2022-11-25T07:02:48.604Z,80.40
2022-11-25T07:04:53.848Z,69.90
2022-11-25T07:06:58.099Z,75.03
2022-11-25T07:09:02.788Z,78.20
2022-11-25T07:11:17.188Z,78.45
2022-11-25T07:13:24.390Z,77.93
2022-11-25T07:15:28.784Z,77.28
2022-11-25T07:17:33.182Z,78.68
2022-11-25T07:19:38.774Z,69.38
2022-11-25T07:21:44.041Z,81.15
2022-11-25T07:23:48.950Z,85.18
2022-11-25T07:25:53.429Z,81.00
2022-11-25T07:27:57.358Z,84.65
2022-11-25T07:30:54.851Z,74.65
2022-11-25T07:32:28.611Z,70.72
2022-11-25T07:34:32.549Z,73.05
2022-11-25T07:36:38.490Z,76.55
2022-11-25T07:38:46.641Z,78.43
2022-11-25T07:40:53.049Z,74.95
2022-11-25T07:42:58.119Z,69.88
2022-11-25T07:45:01.943Z,81.60
2022-11-25T07:47:05.840Z,82.93
2022-11-25T07:49:22.292Z,75.82
2022-11-25T07:51:35.711Z,78.57
2022-11-25T07:53:42.529Z,79.00
2022-11-25T07:55:46.328Z,80.13
2022-11-25T07:57:50.739Z,86.40
2022-11-25T07:59:55.379Z,82.40
2022-11-25T08:02:00.124Z,82.32
2022-11-25T08:04:04.509Z,81.80
2022-11-25T08:06:11.410Z,91.22
2022-11-25T08:08:16.653Z,83.05
2022-11-25T08:10:21.481Z,93.82
2022-11-25T08:12:26.132Z,114.93
2022-11-25T08:14:31.142Z,89.38
2022-11-25T08:16:36.495Z,89.63
2022-11-25T08:18:41.911Z,91.85
2022-11-25T08:20:46.128Z,117.38
2022-11-25T08:22:50.531Z,108.55
2022-11-25T08:24:57.738Z,121.70
2022-11-25T08:27:04.178Z,112.20
2022-11-25T08:29:10.580Z,116.22
2022-11-25T08:31:24.509Z,122.35
2022-11-25T08:33:28.411Z,124.30
2022-11-25T08:35:32.961Z,108.82
2022-11-25T08:37:37.230Z,117.50
2022-11-25T08:39:56.814Z,120.45
2022-11-25T08:42:01.391Z,111.28
2022-11-25T08:44:09.532Z,136.50
2022-11-25T08:46:17.185Z,116.00
2022-11-25T08:48:24.673Z,116.55
2022-11-25T08:50:30.429Z,102.18
2022-11-25T08:52:34.621Z,104.78
2022-11-25T08:54:39.317Z,113.85
2022-11-25T08:56:43.241Z,114.70
2022-11-25T08:58:47.781Z,117.57
2022-11-25T09:00:52.130Z,105.95
2022-11-25T09:02:57.489Z,99.53
2022-11-25T09:05:02.013Z,115.43
2022-11-25T09:07:07.199Z,102.13
2022-11-25T09:09:12.214Z,103.35
2022-11-25T09:11:16.778Z,120.93
2022-11-25T09:13:21.131Z,115.63
2022-11-25T09:15:25.021Z,125.63
2022-11-25T09:17:30.251Z,117.07
2022-11-25T09:19:34.800Z,122.80
2022-11-25T09:21:39.389Z,120.07
2022-11-25T09:23:43.101Z,104.85
2022-11-25T09:25:59.011Z,112.55
2022-11-25T09:28:02.909Z,97.25
2022-11-25T09:30:07.559Z,106.32
2022-11-25T09:32:13.990Z,102.30
2022-11-25T09:34:18.640Z,106.15
2022-11-25T09:36:23.554Z,124.50
2022-11-25T09:38:27.752Z,129.07
2022-11-25T09:40:44.909Z,121.40
2022-11-25T09:43:16.101Z,122.82
2022-11-25T09:46:07.743Z,122.15
2022-11-25T09:48:49.298Z,113.30
2022-11-25T09:51:08.689Z,105.18
2022-11-25T09:53:45.091Z,112.78
2022-11-25T09:55:58.460Z,118.63
2022-11-25T09:58:19.780Z,98.05
2022-11-25T10:00:25.949Z,114.72
2022-11-25T10:03:05.595Z,105.18
2022-11-25T10:05:24.171Z,91.78
2022-11-25T10:07:37.380Z,95.20
2022-11-25T10:09:41.961Z,86.13
2022-11-25T10:11:49.221Z,83.57
2022-11-25T10:14:15.339Z,76.80
2022-11-25T10:16:51.547Z,70.63
2022-11-25T10:19:03.220Z,87.38
2022-11-25T10:21:07.471Z,81.90
2022-11-25T10:23:27.806Z,79.38
2022-11-25T10:25:44.503Z,75.85
2022-11-25T10:27:48.985Z,79.82
2022-11-25T10:30:04.459Z,93.35
2022-11-25T10:32:28.341Z,129.80
2022-11-25T10:34:37.296Z,175.90
2022-11-25T10:36:44.056Z,82.15
2022-11-25T10:39:25.921Z,78.60
2022-11-25T10:41:35.089Z,75.70
2022-11-25T10:43:41.497Z,87.05
2022-11-25T10:45:54.539Z,77.80
2022-11-25T10:48:34.760Z,69.65
2022-11-25T10:50:39.107Z,76.68
2022-11-25T10:53:10.898Z,69.35
2022-11-25T10:55:27.819Z,69.72
2022-11-25T10:57:32.321Z,67.20
2022-11-25T10:59:40.052Z,61.33
2022-11-25T11:01:43.919Z,71.15
2022-11-25T11:03:53.162Z,69.00
2022-11-25T11:05:57.750Z,70.50
2022-11-25T11:08:24.689Z,60.45
2022-11-25T11:10:30.188Z,48.08
2022-11-25T11:12:34.629Z,62.22
2022-11-25T11:14:39.104Z,69.22
2022-11-25T11:16:47.631Z,71.60
2022-11-25T11:18:55.289Z,65.28
2022-11-25T11:21:03.173Z,72.10
2022-11-25T11:23:14.698Z,67.93
2022-11-25T11:25:29.900Z,67.73
2022-11-25T11:27:39.118Z,60.25
2022-11-25T11:29:44.279Z,51.83
2022-11-25T11:32:00.450Z,54.13
2022-11-25T11:34:41.920Z,58.28
2022-11-25T11:36:55.499Z,62.67
2022-11-25T11:39:12.879Z,48.47
2022-11-25T11:41:41.930Z,57.47
2022-11-25T11:44:34.056Z,63.58
2022-11-25T11:46:57.927Z,65.60
2022-11-25T11:49:04.921Z,67.10
2022-11-25T11:51:41.653Z,64.85
2022-11-25T11:53:52.789Z,67.03
2022-11-25T11:56:34.644Z,65.72
2022-11-25T11:59:20.939Z,61.72
2022-11-25T12:01:47.137Z,61.15
2022-11-25T12:04:10.882Z,62.80
2022-11-25T12:06:15.731Z,63.28
2022-11-25T12:08:30.130Z,62.58
2022-11-25T12:10:53.929Z,63.55
2022-11-25T12:13:09.769Z,62.97
2022-11-25T12:15:33.130Z,61.10
2022-11-25T12:17:50.601Z,108.70
2022-11-25T12:20:31.138Z,54.67
2022-11-25T12:22:43.997Z,65.28
2022-11-25T12:25:10.370Z,68.53
2022-11-25T12:27:43.484Z,62.67
2022-11-25T12:30:04.689Z,64.47
2022-11-25T12:32:24.437Z,59.55
2022-11-25T12:34:42.817Z,58.53
2022-11-25T12:36:50.210Z,69.32
2022-11-25T12:39:27.852Z,67.65
2022-11-25T12:41:46.250Z,60.65
2022-11-25T12:43:58.079Z,63.08
2022-11-25T12:46:27.291Z,63.17
2022-11-25T12:48:31.344Z,69.95
2022-11-25T12:51:03.645Z,66.78
2022-11-25T12:53:34.438Z,69.65
2022-11-25T12:55:41.069Z,60.28
2022-11-25T12:58:04.107Z,69.57
2022-11-25T13:00:49.324Z,72.13
2022-11-25T15:47:35.360Z,74.90
2022-11-25T15:49:40.223Z,88.82
2022-11-25T15:51:52.840Z,88.05
2022-11-25T15:54:17.890Z,84.15
2022-11-25T15:56:28.390Z,87.85
2022-11-25T15:58:33.062Z,84.85
2022-11-25T16:00:37.650Z,82.10
2022-11-25T16:02:52.520Z,85.65
2022-11-25T16:05:19.950Z,91.82
2022-11-25T16:07:26.596Z,102.60
2022-11-25T16:09:32.831Z,107.57
2022-11-25T16:11:46.858Z,108.68
2022-11-25T16:13:53.370Z,101.13
2022-11-25T16:16:09.822Z,84.55
2022-11-25T16:18:39.290Z,84.07
2022-11-25T16:20:52.440Z,96.35
2022-11-25T16:22:58.341Z,92.70
2022-11-25T16:25:04.272Z,99.75
2022-11-25T17:08:36.120Z,90.07
2022-11-25T17:10:41.122Z,97.22
2022-11-25T17:12:47.429Z,104.65
2022-11-25T17:14:51.712Z,102.60
2022-11-25T17:17:01.003Z,96.78
2022-11-25T17:19:05.496Z,95.97
2022-11-25T17:21:11.029Z,96.93
2022-11-25T17:23:22.267Z,84.55
2022-11-25T17:25:33.830Z,90.97
2022-11-25T17:27:43.105Z,101.28
2022-11-25T17:29:48.011Z,90.88
2022-11-25T17:31:58.198Z,93.07
2022-11-25T17:34:03.021Z,79.85
2022-11-25T17:36:07.760Z,94.85
2022-11-25T17:38:21.501Z,91.78
2022-11-25T17:40:26.098Z,97.30
2022-11-25T17:42:34.109Z,95.78
2022-11-25T17:44:39.716Z,97.88
2022-11-25T17:46:44.050Z,95.82
2022-11-25T17:48:49.108Z,108.43
2022-11-25T17:50:54.732Z,103.88
2022-11-25T17:52:58.979Z,114.28
2022-11-25T17:55:02.658Z,98.70
2022-11-25T17:57:10.689Z,96.78
2022-11-25T17:59:27.910Z,84.97
2022-11-25T18:01:32.374Z,96.00
2022-11-25T18:03:36.352Z,95.70
2022-11-25T18:05:41.531Z,95.30
2022-11-25T18:07:46.819Z,92.88
2022-11-25T18:09:50.864Z,94.00
2022-11-25T18:11:58.932Z,97.28
2022-11-25T18:14:03.240Z,102.30
2022-11-25T18:16:08.108Z,97.78
2022-11-25T18:18:23.581Z,102.93
2022-11-25T18:20:29.039Z,118.25
2022-11-25T18:25:21.354Z,108.13
2022-11-25T18:27:29.547Z,110.80
2022-11-25T18:29:33.682Z,120.28
2022-11-25T18:31:36.174Z,109.25
2022-11-25T18:33:38.889Z,121.38
2022-11-25T18:35:42.553Z,123.80
2022-11-25T18:37:45.281Z,115.30
2022-11-25T18:39:47.692Z,116.22
2022-11-25T18:41:54.251Z,112.80
2022-11-25T18:43:57.449Z,126.63
2022-11-25T18:46:00.573Z,130.65
2022-11-25T19:14:40.464Z,140.30
2022-11-25T19:16:44.642Z,146.40
2022-11-25T19:18:48.820Z,149.68
2022-11-25T19:20:52.157Z,140.55
2022-11-25T19:23:00.417Z,143.80
2022-11-25T19:25:03.369Z,132.93
2022-11-25T19:27:05.894Z,136.57
2022-11-25T19:29:13.001Z,130.13
2022-11-25T19:31:16.407Z,141.63
2022-11-25T19:33:29.613Z,112.97
2022-11-25T19:35:37.995Z,119.85
2022-11-25T19:37:41.033Z,117.45
2022-11-25T19:39:43.804Z,117.72
2022-11-25T19:41:48.199Z,120.75
2022-11-25T19:43:51.851Z,126.18
2022-11-25T19:45:58.166Z,116.25
2022-11-25T19:48:06.101Z,118.35
2022-11-25T19:50:16.922Z,121.07
2022-11-25T19:52:22.941Z,119.35
2022-11-25T19:54:25.901Z,115.82
2022-11-25T19:56:28.511Z,130.23
2022-11-25T19:58:31.443Z,126.10
2022-11-25T20:00:35.951Z,117.82
2022-11-25T20:02:39.101Z,117.75
2022-11-25T20:04:43.252Z,117.40
2022-11-25T20:06:46.263Z,124.65
2022-11-25T20:08:48.742Z,125.97
2022-11-25T20:10:52.461Z,130.88
2022-11-25T20:12:57.082Z,116.93
2022-11-25T20:15:00.222Z,132.98
2022-11-25T20:17:03.612Z,137.48
2022-11-25T20:19:07.814Z,131.55
2022-11-25T20:21:35.048Z,133.00
2022-11-25T20:23:44.246Z,135.38
2022-11-25T20:25:49.226Z,136.73
2022-11-25T20:27:52.241Z,135.02
2022-11-25T20:29:56.091Z,138.25
2022-11-25T20:31:59.526Z,146.95
2022-11-25T20:34:02.121Z,125.97
2022-11-25T20:36:08.693Z,143.05
2022-11-25T20:38:32.362Z,149.23
2022-11-25T20:40:44.471Z,143.40
2022-11-25T20:42:50.956Z,153.63
2022-11-25T20:44:57.519Z,141.93
2022-11-25T20:47:00.914Z,147.32
2022-11-25T20:49:17.543Z,171.20
2022-11-25T20:51:22.873Z,167.73
2022-11-25T20:53:25.961Z,163.07
2022-11-25T20:55:29.621Z,158.13
2022-11-25T20:57:35.043Z,164.68
2022-11-25T20:59:38.271Z,169.25
2022-11-25T21:01:41.167Z,164.45
2022-11-25T21:03:45.371Z,156.93
2022-11-25T21:05:51.062Z,165.23
2022-11-25T21:07:54.901Z,156.85
2022-11-25T21:09:57.532Z,169.52
2022-11-25T21:12:01.481Z,165.75
2022-11-25T21:14:04.131Z,164.32
2022-11-25T21:16:06.876Z,182.27
2022-11-25T21:18:10.493Z,157.95
2022-11-25T21:20:14.396Z,161.35
2022-11-25T21:22:17.251Z,154.07
2022-11-25T21:24:32.106Z,163.77
2022-11-25T21:26:35.552Z,175.88
2022-11-25T21:28:43.192Z,159.95
2022-11-25T21:30:47.654Z,165.30
2022-11-25T21:32:55.285Z,170.32
2022-11-25T21:34:59.152Z,160.52
2022-11-25T21:37:03.814Z,173.30
2022-11-25T21:39:13.593Z,153.57
2022-11-25T21:41:16.691Z,165.73
2022-11-25T21:43:26.412Z,156.32
2022-11-25T21:45:28.942Z,158.82
2022-11-25T21:47:32.081Z,162.50
2022-11-25T21:49:34.692Z,171.45
2022-11-25T21:51:37.302Z,163.00
2022-11-25T21:53:40.523Z,146.65
2022-11-25T21:55:44.282Z,160.75
2022-11-25T21:57:47.463Z,149.18
2022-11-25T21:59:50.025Z,142.45
2022-11-25T22:01:53.512Z,143.32
2022-11-25T22:03:56.032Z,142.32
2022-11-25T22:05:58.722Z,170.02
2022-11-25T22:08:01.531Z,151.73
2022-11-25T22:10:04.302Z,149.80
2022-11-25T22:12:07.844Z,150.25
2022-11-25T22:14:29.721Z,151.20
2022-11-25T22:16:35.684Z,142.75
2022-11-25T22:18:38.322Z,145.70
2022-11-25T22:20:44.092Z,140.23
2022-11-25T22:22:47.281Z,132.63
2022-11-25T22:24:50.800Z,137.02
